Terminal Aerodrome Forecast
Issued by NWS

Home | Current Version | Previous Version | Text Only | Print | Product List | Glossary On
Versions: 1 2 3 4 5 6 7 8 9 10 11 12 13
615
FTUS44 KLZK 191720
TAFHOT
TAF
KHOT 191720Z 1918/2018 19008KT P6SM BKN040
     FM200200 VRB02KT P6SM VCFG SCT250
     FM201500 20008KT P6SM SCT050=

USA.gov is the U.S. government's official web portal to all federal, state and local government web resources and services.